sim
Sign-in with your pilot id or email,
or register
Callsign
Passwort

Schedule Details

Flight Number: OEO7665
Departure: Vancouver International Airport (CYVR) at 19:15
Arrival: Munich Airport (EDDM) at 05:05

Weather Information
Getting current METAR information for CYVR 211200Z 08005KT 15SM FEW039 SCT240 12/11 A2995 RMK SC1CI1 SLP143
Getting current METAR information for EDDM 211220Z 03005KT 330V080 CAVOK 22/12 Q1016 NOSIG

Schedule Frequency

Route Map